Time;durP1;ratioP1;P1;durP2;ratioP2;P2;SDS_P1;SDS_P2;PMS_P1;PMS_P2;Temp;Humidity;BMP_temperature;BMP_pressure;BME280_temperature;BME280_humidity;BME280_pressure;Samples;Min_cycle;Max_cycle;Signal;HPM_P1;HPM_P2
2022/02/02 00:02:50;;;;;;;10.68;2.98;;;;;;;4.76;77.74;98383.70;2160438;82;31186;-79
2022/02/02 00:06:05;;;;;;;8.83;2.47;;;;;;;4.76;77.74;98386.35;2196479;80;33007;-79
2022/02/02 00:09:00;;;;;;;6.47;2.25;;;;;;;4.77;77.71;98376.13;2132041;80;29360;-80
2022/02/02 00:21:55;;;;;;;11.08;3.05;;;;;;;4.82;77.68;98382.48;2155713;82;32941;-79
2022/02/02 00:25:11;;;;;;;9.55;2.67;;;;;;;4.82;77.63;98388.66;2157458;81;28709;-81
2022/02/02 00:27:59;;;;;;;9.28;2.52;;;;;;;4.84;77.61;98385.91;2153218;82;27600;-80
2022/02/02 00:31:05;;;;;;;8.65;2.65;;;;;;;4.84;77.58;98388.11;2155812;82;28708;-81
2022/02/02 00:34:08;;;;;;;10.43;2.87;;;;;;;4.85;77.57;98384.52;2157966;81;31999;-79
2022/02/02 00:37:08;;;;;;;9.05;2.27;;;;;;;4.85;77.55;98388.95;2155519;82;33912;-78
2022/02/02 00:40:10;;;;;;;10.05;2.98;;;;;;;4.85;77.53;98411.05;2155962;82;29321;-79
2022/02/02 00:43:12;;;;;;;10.40;3.05;;;;;;;4.87;77.69;98397.68;2158186;81;28236;-80
2022/02/02 00:46:23;;;;;;;11.68;3.02;;;;;;;4.86;77.61;98398.63;2197108;80;28495;-81
2022/02/02 00:49:24;;;;;;;11.18;2.90;;;;;;;4.86;77.58;98395.97;2196967;81;31232;-80
2022/02/02 00:52:26;;;;;;;11.53;3.25;;;;;;;4.86;77.62;98396.84;2197280;80;33022;-82
2022/02/02 00:55:28;;;;;;;10.65;2.37;;;;;;;4.86;77.52;98399.50;2170436;81;29303;-81
2022/02/02 00:58:30;;;;;;;10.95;2.72;;;;;;;4.85;77.46;98403.55;2119360;84;27617;-82
2022/02/02 01:01:32;;;;;;;9.38;2.58;;;;;;;4.81;77.43;98403.33;2118506;83;28833;-81
2022/02/02 01:04:34;;;;;;;10.65;2.85;;;;;;;4.79;77.38;98411.38;2165639;80;31875;-79
2022/02/02 01:11:11;;;;;;;9.25;3.10;;;;;;;4.75;77.36;98410.33;2153077;82;29339;-82
2022/02/02 01:17:35;;;;;;;15.40;3.15;;;;;;;4.70;77.37;98411.43;2038448;87;29510;-82
2022/02/02 01:30:11;;;;;;;16.87;3.05;;;;;;;4.75;77.54;98419.12;1997719;89;27815;-79
2022/02/02 01:33:13;;;;;;;11.40;3.42;;;;;;;4.77;77.53;98421.22;1999556;87;29572;-76
2022/02/02 01:36:16;;;;;;;12.73;2.50;;;;;;;4.81;77.49;98424.55;1997494;89;31872;-79
2022/02/02 01:39:19;;;;;;;15.78;3.45;;;;;;;4.83;77.39;98426.65;1997442;89;32979;-79
2022/02/02 01:42:22;;;;;;;13.03;2.77;;;;;;;4.85;77.39;98424.31;1997523;89;30136;-77
2022/02/02 01:45:32;;;;;;;13.00;2.37;;;;;;;4.87;77.29;98426.87;2020552;87;27694;-76
2022/02/02 01:48:47;;;;;;;12.47;2.83;;;;;;;4.89;77.23;98437.38;2042141;86;28767;-76
2022/02/02 01:52:11;;;;;;;10.15;2.33;;;;;;;4.91;77.20;98431.52;2011934;87;31030;-76
2022/02/02 01:55:00;;;;;;;13.32;3.08;;;;;;;4.94;77.11;98441.97;2128974;81;32970;-74
2022/02/02 01:58:05;;;;;;;9.33;2.10;;;;;;;4.94;77.11;98441.52;2081499;85;29488;-77
2022/02/02 02:01:01;;;;;;;7.62;2.20;;;;;;;4.97;76.99;98447.11;2080655;85;27658;-77
2022/02/02 02:04:02;;;;;;;10.72;2.15;;;;;;;4.97;76.95;98447.11;2104046;83;28633;-77
2022/02/02 02:07:05;;;;;;;14.70;3.20;;;;;;;4.97;76.87;98447.95;2142276;83;31036;-75
2022/02/02 02:10:07;;;;;;;12.20;2.62;;;;;;;4.96;76.89;98450.25;2144344;83;32976;-76
2022/02/02 02:13:15;;;;;;;12.23;2.75;;;;;;;4.97;76.74;98451.08;2146085;80;29308;-75
2022/02/02 02:16:13;;;;;;;15.70;3.50;;;;;;;4.98;76.74;98455.45;2160861;80;27573;-77
2022/02/02 02:19:14;;;;;;;10.00;2.40;;;;;;;4.96;76.70;98455.55;2144479;81;28810;-77
2022/02/02 02:22:27;;;;;;;17.48;2.45;;;;;;;4.94;76.49;98458.76;2144532;83;31243;-76
2022/02/02 02:25:31;;;;;;;18.55;3.35;;;;;;;4.92;76.45;98457.98;2201053;80;33957;-75
2022/02/02 02:28:49;;;;;;;16.85;2.72;;;;;;;4.92;76.38;98455.33;2214986;80;30134;-79
2022/02/02 02:35:27;;;;;;;14.78;3.40;;;;;;;4.91;76.24;98458.05;2178509;81;28796;-80
2022/02/02 03:01:23;;;;;;;15.45;2.95;;;;;;;4.89;75.97;98477.18;2149344;82;36950;-82
2022/02/02 03:29:43;;;;;;;11.78;2.62;;;;;;;4.91;75.79;98463.36;2160254;79;32993;-75
2022/02/02 03:30:53;;;;;;;13.80;2.60;;;;;;;4.91;75.59;98484.59;2112131;84;33082;-78
2022/02/02 04:03:43;;;;;;;8.58;2.37;;;;;;;4.82;75.44;98530.59;2021052;87;34075;-78
2022/02/02 04:06:33;;;;;;;8.60;2.20;;;;;;;4.82;75.39;98540.34;1976570;89;29498;-79
2022/02/02 04:09:38;;;;;;;9.25;1.98;;;;;;;4.80;75.42;98523.19;1961688;89;27883;-79
2022/02/02 04:13:07;;;;;;;7.78;1.55;;;;;;;4.78;75.27;98533.52;1986873;89;28821;-80
2022/02/02 04:56:06;;;;;;;10.28;2.40;;;;;;;4.43;76.27;98537.59;2096105;84;30168;-77
2022/02/02 05:12:11;;;;;;;16.93;3.58;;;;;;;4.35;76.37;98538.83;2174222;80;30181;-77
2022/02/02 05:18:39;;;;;;;13.98;3.00;;;;;;;4.33;76.43;98542.03;2099339;84;28871;-76
2022/02/02 05:50:52;;;;;;;16.23;4.05;;;;;;;4.47;76.60;98577.59;2120183;82;28877;-75
2022/02/02 05:53:41;;;;;;;18.57;3.50;;;;;;;4.47;76.44;98574.94;2074956;85;31889;-77
2022/02/02 05:56:52;;;;;;;19.87;3.58;;;;;;;4.46;76.40;98575.87;2114950;84;33750;-77
2022/02/02 05:59:57;;;;;;;20.20;4.72;;;;;;;4.45;76.31;98579.46;2117201;82;29690;-77
2022/02/02 06:03:02;;;;;;;14.93;3.10;;;;;;;4.41;76.29;98573.44;2114966;84;27567;-77
2022/02/02 06:06:03;;;;;;;16.48;3.72;;;;;;;4.42;76.29;98587.09;2115039;83;29536;-75
2022/02/02 06:09:06;;;;;;;13.55;2.72;;;;;;;4.41;76.37;98580.94;2114800;84;31950;-74
2022/02/02 06:12:09;;;;;;;14.98;3.90;;;;;;;4.42;76.37;98587.09;2117269;82;33726;-74
2022/02/02 06:15:16;;;;;;;19.50;3.75;;;;;;;4.45;76.44;98602.00;2114883;84;29386;-76
2022/02/02 06:18:20;;;;;;;15.93;3.25;;;;;;;4.46;76.40;98602.39;2114925;84;27701;-75
2022/02/02 06:21:36;;;;;;;20.37;4.25;;;;;;;4.47;76.46;98612.91;2117254;82;29522;-75
2022/02/02 06:24:55;;;;;;;19.80;3.83;;;;;;;4.47;76.43;98618.69;2114789;84;32217;-74
2022/02/02 06:28:06;;;;;;;13.15;3.72;;;;;;;4.49;76.53;98618.11;2086693;84;33827;-74
2022/02/02 06:31:08;;;;;;;16.67;3.65;;;;;;;4.48;76.51;98626.55;2117573;82;30563;-72
2022/02/02 06:34:14;;;;;;;18.95;3.92;;;;;;;4.47;76.47;98630.63;2114913;84;27733;-76
2022/02/02 06:37:16;;;;;;;13.68;3.83;;;;;;;4.43;76.38;98631.22;2114962;84;29457;-75
2022/02/02 06:40:19;;;;;;;16.15;3.52;;;;;;;4.39;76.39;98645.56;2124616;82;31032;-73
2022/02/02 06:43:23;;;;;;;17.82;4.33;;;;;;;4.35;76.42;98644.87;2155256;82;33011;-74
2022/02/02 06:46:31;;;;;;;21.20;4.67;;;;;;;4.31;76.38;98645.95;2118639;84;29226;-77
2022/02/02 06:49:30;;;;;;;14.85;3.75;;;;;;;4.27;76.36;98640.45;2155006;82;27605;-80
2022/02/02 06:53:02;;;;;;;16.67;4.00;;;;;;;4.20;76.29;98649.18;2116296;84;28643;-79
2022/02/02 06:56:50;;;;;;;26.95;4.28;;;;;;;4.14;76.29;98649.47;2118226;83;32107;-80
2022/02/02 07:03:17;;;;;;;18.90;3.60;;;;;;;3.97;76.38;98662.70;1974962;90;30150;-75
2022/02/02 07:06:27;;;;;;;16.73;3.42;;;;;;;3.89;76.47;98661.75;1974223;90;27710;-75
2022/02/02 07:09:46;;;;;;;11.40;2.92;;;;;;;3.83;76.52;98666.88;2012321;88;28766;-75
2022/02/02 07:12:52;;;;;;;15.15;3.30;;;;;;;3.79;76.57;98678.55;2048187;86;31090;-75
2022/02/02 07:16:08;;;;;;;22.30;4.25;;;;;;;3.79;76.76;98692.67;2051261;86;33782;-78
2022/02/02 07:19:11;;;;;;;17.75;3.50;;;;;;;3.89;77.14;98703.66;2051399;86;29354;-78
2022/02/02 07:28:41;;;;;;;13.75;3.30;;;;;;;4.21;77.42;98717.16;2014916;88;30913;-75
2022/02/02 07:31:56;;;;;;;16.73;3.95;;;;;;;4.29;77.43;98721.20;2084538;83;33797;-76
2022/02/02 07:35:21;;;;;;;20.55;3.83;;;;;;;4.45;77.64;98719.99;2094527;83;29378;-74
2022/02/02 07:38:24;;;;;;;22.75;3.80;;;;;;;4.49;77.36;98716.23;2129444;83;27768;-72
2022/02/02 07:41:32;;;;;;;19.62;3.58;;;;;;;4.54;77.33;98724.81;2129408;83;28670;-68
2022/02/02 07:44:36;;;;;;;13.58;3.83;;;;;;;4.74;77.66;98736.22;2128816;83;31163;-73
2022/02/02 07:47:46;;;;;;;15.65;3.02;;;;;;;5.01;77.48;98742.75;2133505;83;33047;-74
2022/02/02 07:50:49;;;;;;;17.57;4.47;;;;;;;5.19;77.14;98741.88;2119244;82;28800;-67
2022/02/02 07:53:56;;;;;;;16.50;4.08;;;;;;;5.50;77.49;98740.23;2077597;85;27698;-64
2022/02/02 07:56:58;;;;;;;15.90;3.62;;;;;;;5.71;76.91;98744.36;2104192;83;29710;-64
2022/02/02 08:00:07;;;;;;;12.88;2.85;;;;;;;5.81;76.43;98750.03;2154977;81;32471;-63
2022/02/02 08:03:11;;;;;;;17.20;3.58;;;;;;;6.02;76.21;98760.45;2118602;83;33818;-64
2022/02/02 08:06:12;;;;;;;13.08;3.85;;;;;;;6.23;76.03;98766.36;2154697;82;30529;-63
2022/02/02 08:09:24;;;;;;;10.80;3.17;;;;;;;6.43;76.03;98763.03;2118090;83;28201;-65
2022/02/02 08:12:20;;;;;;;15.80;3.47;;;;;;;6.49;75.57;98775.99;2175829;81;29753;-64
2022/02/02 08:15:23;;;;;;;13.05;2.90;;;;;;;6.45;75.11;98771.79;2217390;80;31560;-64
2022/02/02 08:18:25;;;;;;;13.80;3.58;;;;;;;6.39;74.97;98783.16;2203542;80;33453;-64
2022/02/02 08:21:27;;;;;;;20.50;7.10;;;;;;;6.33;74.93;98787.52;2142689;80;30549;-64
2022/02/02 08:24:29;;;;;;;22.82;11.00;;;;;;;6.26;74.72;98790.61;2140817;83;27657;-64
2022/02/02 08:27:38;;;;;;;13.55;4.22;;;;;;;6.18;74.52;98791.04;2159500;80;30015;-63
2022/02/02 08:30:36;;;;;;;11.25;4.33;;;;;;;6.19;74.85;98792.27;2180770;80;31004;-64
2022/02/02 08:33:40;;;;;;;15.68;4.05;;;;;;;6.26;74.85;98804.75;2176147;81;34186;-62
2022/02/02 08:36:45;;;;;;;19.85;4.35;;;;;;;6.33;74.74;98803.92;2150845;81;30615;-64
2022/02/02 08:40:09;;;;;;;15.30;3.40;;;;;;;6.38;74.77;98817.83;2164702;80;27670;-64
2022/02/02 08:42:58;;;;;;;14.43;4.45;;;;;;;6.50;74.71;98821.61;2137377;83;28685;-64
2022/02/02 08:46:09;;;;;;;13.20;4.47;;;;;;;6.58;74.73;98827.82;2141222;83;31421;-64
2022/02/02 08:49:09;;;;;;;15.83;4.87;;;;;;;6.65;74.80;98833.16;2167480;80;34450;-63
2022/02/02 08:52:09;;;;;;;14.95;4.90;;;;;;;6.67;74.29;98838.80;2158301;81;29929;-64
2022/02/02 08:55:13;;;;;;;19.35;5.75;;;;;;;6.65;74.07;98851.33;2149604;81;27664;-65
2022/02/02 08:58:31;;;;;;;18.20;5.47;;;;;;;6.65;74.21;98846.47;2193272;80;28708;-63
2022/02/02 09:01:25;;;;;;;18.62;4.97;;;;;;;6.73;74.19;98850.02;2211693;80;32329;-62
2022/02/02 09:07:45;;;;;;;68.30;33.35;;;;;;;7.11;74.27;98849.15;2148734;80;30527;-61
2022/02/02 09:24:19;;;;;;;14.13;5.95;;;;;;;8.38;73.08;98851.69;2217688;80;29727;-63
2022/02/02 09:36:44;;;;;;;11.48;4.62;;;;;;;8.74;69.80;98871.16;2239501;79;34419;-63
2022/02/02 09:39:52;;;;;;;16.23;5.60;;;;;;;8.60;69.50;98870.74;2204403;79;29399;-64
2022/02/02 09:42:56;;;;;;;14.95;5.28;;;;;;;8.50;69.60;98872.27;2195830;81;27670;-63
2022/02/02 09:46:04;;;;;;;40.25;15.60;;;;;;;8.47;69.63;98871.09;2197369;81;28521;-65
2022/02/02 09:49:10;;;;;;;36.63;14.50;;;;;;;8.49;69.54;98874.09;2165153;81;32035;-65
2022/02/02 09:52:16;;;;;;;23.00;8.75;;;;;;;8.55;69.39;98879.52;2192380;79;34274;-66
2022/02/02 09:55:19;;;;;;;34.67;13.15;;;;;;;8.46;68.98;98882.27;2185543;79;29115;-65
2022/02/02 10:01:46;;;;;;;33.15;13.55;;;;;;;8.18;68.72;98900.03;2214834;79;29099;-64
2022/02/02 10:14:52;;;;;;;26.62;8.63;;;;;;;7.70;68.90;98922.93;2178285;81;27598;-63
2022/02/02 10:17:58;;;;;;;34.40;12.13;;;;;;;7.63;69.13;98924.23;2122381;83;30088;-63
2022/02/02 10:21:01;;;;;;;27.32;8.78;;;;;;;7.54;69.50;98926.13;2133281;81;31168;-65
2022/02/02 10:24:05;;;;;;;24.07;8.35;;;;;;;7.47;69.74;98927.43;2131555;83;33885;-64
2022/02/02 10:27:12;;;;;;;68.22;23.20;;;;;;;7.44;70.01;98917.81;2124031;83;30244;-65
2022/02/02 10:30:15;;;;;;;64.92;19.30;;;;;;;7.36;69.89;98920.09;2104138;81;27715;-65
2022/02/02 10:33:28;;;;;;;51.02;14.95;;;;;;;7.28;70.22;98925.87;2128484;81;28641;-62
2022/02/02 10:36:30;;;;;;;23.35;6.85;;;;;;;7.18;69.94;98926.87;2135204;81;31947;-64
2022/02/02 10:39:47;;;;;;;20.05;6.22;;;;;;;7.11;70.25;98924.17;2123716;83;34063;-62
2022/02/02 10:42:49;;;;;;;21.05;6.20;;;;;;;7.04;70.01;98921.46;2109628;81;29341;-62
2022/02/02 10:45:51;;;;;;;27.73;10.50;;;;;;;6.96;70.29;98922.78;2139260;81;27934;-62
2022/02/02 10:49:14;;;;;;;26.27;8.50;;;;;;;6.95;70.44;98922.39;2141177;81;29937;-61
2022/02/02 11:08:19;;;;;;;23.25;9.90;;;;;;;7.13;70.13;98912.95;2149064;81;31301;-63
2022/02/02 11:11:21;;;;;;;24.55;7.47;;;;;;;7.03;69.79;98916.63;2169462;80;34116;-63
2022/02/02 11:14:53;;;;;;;22.25;6.87;;;;;;;7.01;70.15;98904.36;2178260;80;30536;-63
2022/02/02 11:18:18;;;;;;;22.02;7.40;;;;;;;7.01;70.34;98904.36;2161320;80;27668;-63
2022/02/02 11:21:31;;;;;;;22.73;9.98;;;;;;;6.96;70.41;98916.13;2171188;80;28789;-61
2022/02/02 11:24:37;;;;;;;;;;;;;;;6.89;70.68;98926.72;2179191;80;31538;-61
2022/02/02 11:27:46;;;;;;;23.95;6.42;;;;;;;6.79;70.77;98940.17;2137284;81;34293;-64
2022/02/02 11:30:52;;;;;;;16.20;5.45;;;;;;;6.61;70.83;98970.01;2080938;85;29940;-63
2022/02/02 11:33:57;;;;;;;25.15;6.55;;;;;;;6.52;71.06;98974.03;2119690;82;27965;-62
2022/02/02 11:37:01;;;;;;;22.90;5.58;;;;;;;6.59;71.55;98981.20;2143977;81;28722;-64
2022/02/02 11:40:09;;;;;;;14.90;4.72;;;;;;;6.75;71.81;98975.42;2147318;82;32216;-63
2022/02/02 11:43:14;;;;;;;16.48;5.55;;;;;;;6.90;71.86;98990.16;2148277;81;32940;-62
2022/02/02 11:46:48;;;;;;;12.85;3.70;;;;;;;7.00;71.82;98991.34;2119210;82;30718;-65
2022/02/02 11:50:06;;;;;;;12.70;4.83;;;;;;;7.09;71.35;98995.30;2121878;83;27689;-64
2022/02/02 11:53:03;;;;;;;14.18;4.20;;;;;;;7.10;71.30;99006.34;2152189;80;28618;-64
2022/02/02 11:56:06;;;;;;;17.10;4.25;;;;;;;7.19;71.52;99003.63;2160925;80;31115;-64
2022/02/02 11:59:53;;;;;;;12.63;3.60;;;;;;;7.30;71.38;99016.73;2160453;82;33573;-65
2022/02/02 12:03:35;;;;;;;12.58;4.90;;;;;;;7.39;70.87;99010.02;2158642;80;29852;-64
2022/02/02 12:06:39;;;;;;;;;;;;;;;7.47;70.80;99017.56;2172776;80;27752;-66
2022/02/02 12:09:48;;;;;;;14.07;4.65;;;;;;;7.59;70.81;99021.34;2169977;80;28781;-66
2022/02/02 12:54:23;;;;;;;15.20;6.83;;;;;;;6.97;69.70;99117.53;2050560;86;29654;-66
2022/02/02 12:57:04;;;;;;;18.90;8.55;;;;;;;6.90;69.74;99122.78;2012869;88;27738;-66
2022/02/02 13:00:20;;;;;;;11.68;3.70;;;;;;;6.85;70.05;99128.84;1924837;90;29693;-67
2022/02/02 13:03:14;;;;;;;6.75;2.95;;;;;;;6.83;70.08;99134.72;1921998;92;31903;-65
2022/02/02 13:06:23;;;;;;;14.53;3.47;;;;;;;6.82;70.15;99140.49;1922831;92;33450;-66
2022/02/02 13:09:27;;;;;;;9.98;2.62;;;;;;;6.78;70.36;99153.60;1948332;90;30513;-66
2022/02/02 13:12:51;;;;;;;11.20;4.13;;;;;;;6.72;70.38;99159.23;1947022;91;27795;-66
2022/02/02 13:15:56;;;;;;;8.33;2.92;;;;;;;6.67;70.76;99170.13;1918464;92;28744;-66
2022/02/02 13:19:02;;;;;;;11.43;4.15;;;;;;;6.61;70.73;99167.77;1882265;94;31931;-66
2022/02/02 13:22:07;;;;;;;13.48;3.60;;;;;;;6.55;70.84;99174.73;1881921;94;33942;-66
2022/02/02 13:25:31;;;;;;;22.37;8.80;;;;;;;6.48;70.93;99178.17;1883851;93;29350;-65
2022/02/02 13:29:02;;;;;;;8.55;3.70;;;;;;;6.39;70.98;99187.97;1888980;92;27688;-65
2022/02/02 13:35:19;;;;;;;12.60;3.33;;;;;;;6.34;71.31;99197.52;1925898;91;31102;-66
2022/02/02 13:38:34;;;;;;;6.90;3.20;;;;;;;6.31;71.03;99206.97;1920943;92;33022;-66
2022/02/02 13:44:51;;;;;;;6.92;2.67;;;;;;;6.16;70.97;99217.03;1922383;92;27779;-66
2022/02/02 13:48:12;;;;;;;11.18;2.62;;;;;;;6.08;71.16;99222.25;1935107;89;29181;-66
2022/02/02 13:54:34;;;;;;;9.63;3.37;;;;;;;5.97;70.91;99246.26;1950443;91;34154;-66
2022/02/02 14:00:49;;;;;;;8.93;2.98;;;;;;;5.85;71.12;99267.18;1949221;90;27766;-66
2022/02/02 14:07:25;;;;;;;8.05;3.10;;;;;;;5.83;71.47;99282.33;2073122;85;32300;-65
2022/02/02 14:10:34;;;;;;;9.18;2.90;;;;;;;5.86;71.62;99288.84;2124315;82;33395;-66
2022/02/02 14:33:22;;;;;;;13.05;3.72;;;;;;;5.79;71.70;99316.66;2221632;80;27641;-65
2022/02/02 14:36:28;;;;;;;14.30;2.98;;;;;;;5.78;71.69;99322.90;2221588;80;28822;-66
2022/02/02 14:39:43;;;;;;;;;;;;;;;5.74;71.75;99334.11;2221433;80;31241;-65
2022/02/02 14:42:33;;;;;;;17.75;4.90;;;;;;;5.71;71.74;99349.34;2218239;78;32957;-66
2022/02/02 14:45:40;;;;;;;16.32;3.75;;;;;;;5.67;71.83;99345.97;2221355;80;30452;-65
2022/02/02 14:48:47;;;;;;;18.17;4.10;;;;;;;5.62;71.81;99356.81;2217625;80;27801;-65
2022/02/02 14:55:28;;;;;;;19.52;4.87;;;;;;;5.61;72.03;99374.13;2144396;81;31012;-65
2022/02/02 15:24:57;;;;;;;24.20;9.28;;;;;;;5.35;72.36;99442.98;2181747;80;29862;-66
2022/02/02 15:27:52;;;;;;;13.62;6.00;;;;;;;5.25;72.42;99450.47;2150611;82;31730;-66
2022/02/02 15:30:58;;;;;;;12.00;5.05;;;;;;;5.18;72.35;99461.81;2133751;82;32973;-66
2022/02/02 15:34:06;;;;;;;13.65;6.12;;;;;;;5.12;72.46;99472.70;2166926;82;29611;-67
2022/02/02 15:40:27;;;;;;;14.18;6.47;;;;;;;5.04;72.56;99488.94;2077827;85;28071;-66
2022/02/02 15:44:52;;;;;;;13.72;5.08;;;;;;;4.98;72.50;99495.33;2090929;85;32363;-66
2022/02/02 16:03:14;;;;;;;9.00;4.35;;;;;;;4.82;73.09;99525.61;2023834;87;34239;-65
2022/02/02 16:06:23;;;;;;;11.53;3.60;;;;;;;4.83;73.30;99533.97;2021764;87;30217;-66
2022/02/02 16:09:27;;;;;;;12.13;5.20;;;;;;;4.80;73.43;99555.31;1989732;89;27779;-66
2022/02/02 16:12:31;;;;;;;14.33;4.87;;;;;;;4.78;73.63;99574.41;1999340;89;29468;-66
2022/02/02 16:15:32;;;;;;;13.68;5.12;;;;;;;4.78;73.73;99591.66;2011706;87;31996;-67
2022/02/02 16:25:09;;;;;;;5.28;1.72;;;;;;;4.60;74.10;99640.95;1905214;92;27792;-67
2022/02/02 16:31:38;;;;;;;6.58;2.30;;;;;;;4.25;74.24;99674.88;1928218;92;31758;-66
2022/02/02 16:37:39;;;;;;;9.30;4.85;;;;;;;4.02;74.49;99678.29;1979562;88;29461;-66
2022/02/02 16:40:43;;;;;;;9.83;6.65;;;;;;;3.94;74.68;99687.34;2008967;88;27694;-66
2022/02/02 16:43:43;;;;;;;11.48;6.75;;;;;;;3.87;74.75;99681.84;2000676;89;28880;-66
2022/02/02 16:46:46;;;;;;;11.03;5.37;;;;;;;3.79;74.79;99694.02;2003981;88;30482;-67
2022/02/02 16:49:48;;;;;;;19.15;9.43;;;;;;;3.72;74.80;99698.23;2003487;88;34296;-67
2022/02/02 16:52:55;;;;;;;16.02;6.85;;;;;;;3.64;74.90;99707.27;2004236;88;29329;-67
2022/02/02 16:56:06;;;;;;;11.95;6.05;;;;;;;3.59;75.05;99705.68;2030976;86;28095;-66
2022/02/02 17:32:30;;;;;;;8.88;4.70;;;;;;;2.94;75.72;99804.13;2171814;80;29256;-66
2022/02/02 17:35:29;;;;;;;7.97;4.22;;;;;;;2.90;75.80;99816.55;2168288;82;32256;-67
2022/02/02 17:38:37;;;;;;;10.45;4.05;;;;;;;2.85;75.79;99818.00;2172141;80;32962;-68
2022/02/02 17:45:10;;;;;;;9.15;5.08;;;;;;;2.78;75.91;99835.39;2210913;80;27532;-67
2022/02/02 17:59:02;;;;;;;10.68;5.25;;;;;;;2.69;76.42;99873.08;2134506;82;30501;-67
2022/02/02 18:21:00;;;;;;;11.88;5.22;;;;;;;2.92;76.97;99921.03;2108641;84;29848;-68
2022/02/02 18:24:18;;;;;;;10.05;5.25;;;;;;;2.93;77.05;99935.53;2108604;84;31902;-67
2022/02/02 18:27:21;;;;;;;8.65;4.95;;;;;;;2.94;76.97;99941.72;2146785;81;34079;-67
2022/02/02 18:30:33;;;;;;;8.50;4.83;;;;;;;2.93;76.90;99953.20;2155115;82;29476;-67
2022/02/02 18:33:37;;;;;;;8.00;4.17;;;;;;;2.96;76.98;99953.14;2154607;82;27713;-67
2022/02/02 18:43:38;;;;;;;27.25;13.62;;;;;;;2.91;76.86;99977.03;2197189;80;33400;-66
2022/02/02 18:50:00;;;;;;;30.50;13.95;;;;;;;2.86;76.87;99999.63;2118102;84;27700;-66
2022/02/02 18:56:13;;;;;;;13.83;8.48;;;;;;;2.82;76.98;100002.39;2127594;81;31828;-66
2022/02/02 18:59:09;;;;;;;13.00;8.58;;;;;;;2.84;77.05;100023.92;2151776;82;34195;-66
2022/02/02 19:15:34;;;;;;;10.13;6.05;;;;;;;2.84;77.05;100060.11;2092775;85;32940;-67
2022/02/02 19:31:39;;;;;;;8.65;4.28;;;;;;;2.76;76.21;100109.21;2058401;86;34184;-67
2022/02/02 19:38:28;;;;;;;12.18;5.17;;;;;;;2.67;76.09;100123.49;2129073;83;27779;-66
2022/02/02 20:13:11;;;;;;;9.88;3.40;;;;;;;2.35;75.20;100195.05;2122474;82;29464;-67
2022/02/02 20:16:13;;;;;;;10.08;2.92;;;;;;;2.26;74.91;100193.43;2131881;83;31140;-67
2022/02/02 20:19:15;;;;;;;6.60;2.85;;;;;;;2.17;74.73;100202.81;2122752;82;33019;-67
2022/02/02 20:22:19;;;;;;;6.60;2.92;;;;;;;2.07;74.46;100213.98;2132871;83;30263;-67
2022/02/02 20:25:20;;;;;;;6.83;3.20;;;;;;;2.01;74.56;100223.35;2133005;83;27718;-67
2022/02/02 20:28:22;;;;;;;9.88;3.58;;;;;;;1.93;74.48;100228.75;2132231;83;28648;-67
2022/02/02 20:31:24;;;;;;;6.05;3.02;;;;;;;1.88;74.44;100219.16;2149872;80;31039;-67
2022/02/02 20:34:26;;;;;;;9.85;3.65;;;;;;;1.79;74.28;100224.13;2200323;80;33113;-68
2022/02/02 20:37:28;;;;;;;7.33;3.27;;;;;;;1.74;74.22;100229.92;2200389;80;29310;-67
2022/02/02 20:40:32;;;;;;;9.33;4.25;;;;;;;1.69;74.34;100240.98;2200003;80;27682;-67
2022/02/02 20:43:46;;;;;;;5.58;2.95;;;;;;;1.63;74.31;100230.95;2160411;80;29506;-67
2022/02/02 20:47:03;;;;;;;5.03;2.95;;;;;;;1.61;74.30;100246.38;2157394;82;31060;-68
2022/02/02 21:09:35;;;;;;;10.53;4.83;;;;;;;1.18;74.21;100260.98;2155941;82;29349;-67
2022/02/02 21:15:51;;;;;;;13.58;5.70;;;;;;;1.11;74.26;100289.66;2148791;82;28707;-67
2022/02/02 21:19:01;;;;;;;10.18;5.00;;;;;;;1.08;74.31;100281.31;2104614;83;31082;-67
2022/02/02 21:22:13;;;;;;;9.30;4.55;;;;;;;1.04;74.26;100287.55;2125045;83;33084;-67
2022/02/02 21:28:44;;;;;;;13.22;4.62;;;;;;;0.95;74.20;100296.85;2200489;80;27666;-67
2022/02/02 21:31:46;;;;;;;8.83;4.10;;;;;;;0.87;74.17;100303.09;2188013;80;43194;-68
2022/02/02 21:34:50;;;;;;;8.35;3.52;;;;;;;0.83;74.19;100321.14;2163673;80;31110;-67
2022/02/02 21:38:01;;;;;;;9.03;3.47;;;;;;;0.78;74.22;100327.36;2125265;83;34767;-67
2022/02/02 21:40:58;;;;;;;16.02;5.40;;;;;;;0.72;74.15;100330.92;2123741;83;30100;-67
2022/02/02 21:44:01;;;;;;;9.25;5.03;;;;;;;0.67;74.19;100337.98;2125095;83;27701;-67
2022/02/02 21:47:09;;;;;;;10.68;3.90;;;;;;;0.60;74.24;100344.63;2176636;80;29496;-67
2022/02/02 21:50:15;;;;;;;12.58;4.95;;;;;;;0.55;74.22;100346.44;2160502;82;31715;-67
2022/02/02 21:53:13;;;;;;;9.30;3.00;;;;;;;0.50;74.26;100342.95;2160216;82;32934;-67
2022/02/02 21:56:15;;;;;;;7.00;2.98;;;;;;;0.45;74.25;100345.63;2164217;80;29471;-66
2022/02/02 21:59:17;;;;;;;6.95;2.90;;;;;;;0.40;74.28;100339.51;2162132;82;27663;-67
2022/02/02 22:02:19;;;;;;;7.42;2.98;;;;;;;0.36;74.35;100346.14;2161620;82;29559;-67
2022/02/02 22:05:21;;;;;;;8.03;2.98;;;;;;;0.30;74.31;100351.87;2127085;82;30994;-67
2022/02/02 22:08:23;;;;;;;6.47;2.80;;;;;;;0.27;74.36;100351.88;2215452;80;32972;-67
2022/02/02 22:11:25;;;;;;;6.87;3.02;;;;;;;0.22;74.42;100358.97;2217517;80;29404;-67
2022/02/02 22:14:26;;;;;;;9.05;3.87;;;;;;;0.19;74.35;100365.98;2203976;79;27722;-66
2022/02/02 22:17:28;;;;;;;10.23;4.08;;;;;;;0.14;74.38;100372.19;2201349;80;28675;-66
2022/02/02 22:20:30;;;;;;;7.90;3.00;;;;;;;0.11;74.45;100369.98;2157290;80;31001;-67
2022/02/02 22:23:34;;;;;;;6.15;2.90;;;;;;;0.05;74.43;100379.25;2131488;82;32930;-67
2022/02/02 22:26:36;;;;;;;6.03;3.50;;;;;;;0.01;74.47;100381.47;2163412;80;30347;-67
2022/02/02 22:29:38;;;;;;;8.70;4.00;;;;;;;-0.04;74.50;100383.67;2131595;82;27720;-68
2022/02/02 22:32:43;;;;;;;10.38;3.83;;;;;;;-0.07;74.50;100392.89;2157136;80;28625;-67
2022/02/02 22:35:44;;;;;;;10.50;4.63;;;;;;;-0.13;74.52;100394.26;2145950;82;31007;-66
2022/02/02 22:38:46;;;;;;;11.73;5.53;;;;;;;-0.15;74.59;100401.28;2168323;82;33082;-67
2022/02/02 22:41:49;;;;;;;9.65;4.87;;;;;;;-0.20;74.60;100397.78;2168396;82;28942;-67
2022/02/02 22:44:54;;;;;;;16.25;7.08;;;;;;;-0.24;74.57;100397.35;2168343;82;27599;-67
2022/02/02 22:47:57;;;;;;;17.62;8.03;;;;;;;-0.29;74.61;100403.09;2141041;82;27710;-67
2022/02/02 22:50:59;;;;;;;16.25;6.60;;;;;;;-0.33;74.66;100407.50;2204067;80;31841;-67
2022/02/02 22:54:02;;;;;;;12.78;5.10;;;;;;;-0.37;74.75;100405.75;2206564;80;33106;-67
2022/02/02 22:57:05;;;;;;;10.93;5.55;;;;;;;-0.42;74.74;100412.36;2206671;80;29551;-67
2022/02/02 23:00:14;;;;;;;11.12;4.70;;;;;;;-0.45;74.94;100409.73;2206995;80;27705;-67
2022/02/02 23:03:20;;;;;;;12.85;4.87;;;;;;;-0.50;75.03;100415.01;2170707;80;29045;-65
2022/02/02 23:06:38;;;;;;;13.18;5.20;;;;;;;-0.52;75.23;100402.71;2168554;82;27702;-66
2022/02/02 23:09:42;;;;;;;11.80;5.15;;;;;;;-0.55;75.32;100399.66;2167892;82;35156;-66
2022/02/02 23:12:43;;;;;;;11.20;5.15;;;;;;;-0.57;75.49;100405.78;2142933;80;29499;-67
2022/02/02 23:15:56;;;;;;;10.40;4.55;;;;;;;-0.58;75.57;100412.81;2134664;82;27803;-67
2022/02/02 23:18:51;;;;;;;11.88;4.87;;;;;;;-0.59;75.69;100411.52;2133860;80;28723;-67
2022/02/02 23:21:52;;;;;;;13.93;5.22;;;;;;;-0.61;75.86;100411.50;2212188;80;31027;-66
2022/02/02 23:25:01;;;;;;;9.85;5.60;;;;;;;-0.61;75.94;100416.77;2217342;80;27953;-66
2022/02/02 23:28:02;;;;;;;16.42;6.85;;;;;;;-0.63;76.05;100418.09;2217343;79;29329;-66
2022/02/02 23:31:07;;;;;;;13.68;5.95;;;;;;;-0.63;76.10;100427.72;2214338;80;27760;-66
2022/02/02 23:34:09;;;;;;;16.87;6.25;;;;;;;-0.64;76.15;100433.86;2217408;80;28716;-65
2022/02/02 23:37:11;;;;;;;15.53;6.42;;;;;;;-0.66;76.29;100426.44;2177585;80;31875;-66
2022/02/02 23:40:13;;;;;;;17.37;6.70;;;;;;;-0.66;76.45;100425.98;2172026;82;32979;-66
2022/02/02 23:43:17;;;;;;;15.18;6.72;;;;;;;-0.67;76.49;100430.81;2171670;82;29322;-67
2022/02/02 23:46:26;;;;;;;22.13;6.72;;;;;;;-0.68;76.52;100433.00;2174215;80;27881;-67
2022/02/02 23:49:44;;;;;;;14.23;6.42;;;;;;;-0.68;76.63;100444.84;2170583;82;28680;-67
2022/02/02 23:52:51;;;;;;;16.40;7.05;;;;;;;-0.69;76.70;100447.03;2169642;81;31043;-66
2022/02/02 23:56:02;;;;;;;11.93;5.62;;;;;;;-0.69;76.74;100454.92;2157376;80;32979;-67
2022/02/02 23:59:17;;;;;;;14.60;7.22;;;;;;;-0.69;76.71;100454.92;2133581;82;28767;-67
